createdAt,value
2023-04-20T00:09:52.316Z,100.00
2023-04-20T00:19:58.475Z,100.00
2023-04-20T00:30:00.089Z,100.00
2023-04-20T00:40:01.674Z,100.00
2023-04-20T00:50:04.037Z,100.00
2023-04-20T01:00:07.548Z,100.00
2023-04-20T01:10:13.203Z,100.00
2023-04-20T01:20:16.364Z,100.00
2023-04-20T01:30:18.038Z,100.00
2023-04-20T01:40:19.814Z,100.00
2023-04-20T01:50:21.686Z,100.00
2023-04-20T02:00:24.743Z,100.00
2023-04-20T02:10:29.523Z,100.00
2023-04-20T02:20:31.256Z,100.00
2023-04-20T02:30:33.949Z,100.00
2023-04-20T02:40:35.801Z,100.00
2023-04-20T02:50:43.310Z,100.00
2023-04-20T03:00:46.510Z,100.00
2023-04-20T03:10:49.374Z,100.00
2023-04-20T03:20:51.630Z,100.00
2023-04-20T03:30:54.509Z,100.00
2023-04-20T03:40:57.421Z,100.00
2023-04-20T03:51:00.665Z,100.00
2023-04-20T04:01:04.216Z,100.00
2023-04-20T04:11:05.852Z,100.00
2023-04-20T04:21:10.386Z,100.00
2023-04-20T04:31:12.415Z,100.00
2023-04-20T04:41:16.243Z,100.00
2023-04-20T04:51:17.865Z,100.00
2023-04-20T05:01:21.279Z,100.00
2023-04-20T05:11:23.140Z,100.00
2023-04-20T05:21:29.087Z,100.00
2023-04-20T05:31:35.554Z,100.00
2023-04-20T05:41:42.704Z,100.00
2023-04-20T05:51:44.381Z,100.00
2023-04-20T06:01:46.132Z,100.00
2023-04-20T06:11:48.067Z,100.00
2023-04-20T06:21:50.010Z,100.00
2023-04-20T06:31:53.412Z,100.00
2023-04-20T06:41:55.383Z,100.00
2023-04-20T06:51:59.229Z,100.00
2023-04-20T07:02:02.111Z,99.68
2023-04-20T07:12:04.244Z,90.96
2023-04-20T07:22:06.446Z,83.18
2023-04-20T07:32:08.216Z,80.88
2023-04-20T07:42:12.220Z,69.96
2023-04-20T07:52:17.365Z,70.27
2023-04-20T08:02:20.598Z,64.83
2023-04-20T08:12:23.733Z,62.88
2023-04-20T08:22:30.594Z,59.68
2023-04-20T08:32:32.312Z,54.59
2023-04-20T08:42:34.049Z,53.75
2023-04-20T08:52:36.210Z,52.54
2023-04-20T09:02:50.492Z,47.48
2023-04-20T09:12:52.869Z,40.44
2023-04-20T09:22:54.626Z,35.43
2023-04-20T09:33:03.089Z,29.19
2023-04-20T09:43:15.207Z,28.18
2023-04-20T09:53:18.136Z,24.71
2023-04-20T10:03:20.616Z,22.09
2023-04-20T10:13:34.519Z,29.39
2023-04-20T10:23:46.865Z,23.04
2023-04-20T10:33:54.690Z,23.17
2023-04-20T10:44:08.975Z,19.89
2023-04-20T10:54:13.166Z,26.35
2023-04-20T11:04:18.368Z,18.46
2023-04-20T11:14:20.769Z,17.11
2023-04-20T11:24:25.921Z,23.34
2023-04-20T11:34:28.216Z,21.84
2023-04-20T11:44:30.051Z,16.70
2023-04-20T11:54:35.615Z,25.37
2023-04-20T12:04:39.178Z,18.21
2023-04-20T12:14:41.252Z,15.14
2023-04-20T12:24:45.680Z,23.50
2023-04-20T12:34:47.390Z,18.84
2023-04-20T12:44:56.374Z,18.56
2023-04-20T12:54:57.980Z,16.77
2023-04-20T13:04:59.638Z,19.92
2023-04-20T13:15:01.378Z,15.98
2023-04-20T13:25:03.784Z,19.32
2023-04-20T13:35:06.654Z,16.85
2023-04-20T13:45:14.745Z,23.14
2023-04-20T13:55:18.177Z,24.08
2023-04-20T14:05:20.917Z,13.63
2023-04-20T14:15:23.559Z,17.31
2023-04-20T14:25:25.902Z,15.28
2023-04-20T14:35:29.631Z,12.44
2023-04-20T14:45:31.213Z,18.21
2023-04-20T14:55:37.835Z,15.71
2023-04-20T15:05:41.144Z,14.33
2023-04-20T15:15:49.920Z,15.75
2023-04-20T15:25:55.069Z,23.28
2023-04-20T15:35:56.942Z,20.17
2023-04-20T15:45:58.842Z,26.92
2023-04-20T15:56:00.564Z,40.15
2023-04-20T16:06:02.358Z,44.83
2023-04-20T16:16:04.213Z,43.47
2023-04-20T16:26:06.319Z,43.46
2023-04-20T16:36:09.179Z,45.40
2023-04-20T16:46:16.410Z,47.26
2023-04-20T16:56:18.647Z,48.48
2023-04-20T17:06:20.486Z,49.04
2023-04-20T17:16:25.708Z,52.47
2023-04-20T17:26:29.129Z,55.81
2023-04-20T17:36:32.029Z,58.68
2023-04-20T17:46:37.316Z,60.31
2023-04-20T17:56:46.505Z,59.32
2023-04-20T18:06:48.381Z,57.22
2023-04-20T18:16:55.625Z,59.83
2023-04-20T18:27:20.320Z,60.54
2023-04-20T18:37:27.587Z,60.50
2023-04-20T18:47:32.297Z,61.72
2023-04-20T18:57:35.756Z,63.97
2023-04-20T19:07:39.281Z,64.32
2023-04-20T19:17:43.404Z,70.71
2023-04-20T19:27:46.578Z,70.04
2023-04-20T19:37:51.798Z,74.66
2023-04-20T19:47:54.428Z,79.92
2023-04-20T19:57:56.798Z,82.51
2023-04-20T20:07:58.912Z,81.12
2023-04-20T20:18:04.318Z,86.41
2023-04-20T20:28:06.924Z,91.50
2023-04-20T20:38:09.076Z,96.39
2023-04-20T20:48:10.937Z,100.00
2023-04-20T20:58:12.704Z,100.00
2023-04-20T21:08:17.464Z,100.00
2023-04-20T21:18:19.380Z,100.00
2023-04-20T21:28:28.220Z,100.00
2023-04-20T21:38:37.456Z,100.00
2023-04-20T21:48:39.292Z,100.00
2023-04-20T21:58:45.378Z,100.00
2023-04-20T22:08:53.287Z,100.00
2023-04-20T22:18:54.942Z,100.00
2023-04-20T22:28:56.847Z,100.00
2023-04-20T22:39:00.734Z,100.00
2023-04-20T22:49:02.530Z,100.00
2023-04-20T22:59:12.343Z,100.00
2023-04-20T23:09:17.278Z,100.00
2023-04-20T23:19:19.288Z,100.00
2023-04-20T23:29:21.225Z,100.00
2023-04-20T23:39:26.964Z,100.00
2023-04-20T23:49:28.887Z,100.00
2023-04-20T23:59:31.280Z,100.00
